sensor_id;sensor_type;location;lat;lon;timestamp;pressure;altitude;pressure_sealevel;temperature;humidity
68137;BME280;54939;50.826;9.030;2023-04-09T00:00:23;99536.19;;;11.04;60.33
68137;BME280;54939;50.826;9.030;2023-04-09T00:01:00;99539.72;;;11.05;60.42
68137;BME280;54939;50.826;9.030;2023-04-09T00:01:30;99536.19;;;11.04;60.38
68137;BME280;54939;50.826;9.030;2023-04-09T00:02:00;99534.50;;;11.03;60.36
68137;BME280;54939;50.826;9.030;2023-04-09T00:02:31;99538.88;;;11.04;60.33
68137;BME280;54939;50.826;9.030;2023-04-09T00:03:01;99540.56;;;11.05;60.18
68137;BME280;54939;50.826;9.030;2023-04-09T00:03:31;99537.03;;;11.05;60.39
68137;BME280;54939;50.826;9.030;2023-04-09T00:04:02;99531.69;;;11.05;60.38
68137;BME280;54939;50.826;9.030;2023-04-09T00:04:32;99536.19;;;11.04;60.45
68137;BME280;54939;50.826;9.030;2023-04-09T00:05:02;99532.66;;;11.04;60.32
68137;BME280;54939;50.826;9.030;2023-04-09T00:05:37;99533.53;;;11.04;60.19
68137;BME280;54939;50.826;9.030;2023-04-09T00:06:07;99541.53;;;11.04;60.42
68137;BME280;54939;50.826;9.030;2023-04-09T00:06:37;99533.53;;;11.04;60.24
68137;BME280;54939;50.826;9.030;2023-04-09T00:07:07;99537.03;;;11.05;60.26
68137;BME280;54939;50.826;9.030;2023-04-09T00:07:37;99533.53;;;11.04;60.19
68137;BME280;54939;50.826;9.030;2023-04-09T00:08:08;99535.34;;;11.04;60.14
68137;BME280;54939;50.826;9.030;2023-04-09T00:08:38;99529.88;;;11.05;60.24
68137;BME280;54939;50.826;9.030;2023-04-09T00:09:08;99530.00;;;11.04;60.40
68137;BME280;54939;50.826;9.030;2023-04-09T00:09:38;99535.34;;;11.04;60.24
68137;BME280;54939;50.826;9.030;2023-04-09T00:10:09;99532.66;;;11.04;60.21
68137;BME280;54939;50.826;9.030;2023-04-09T00:10:39;99530.00;;;11.04;60.21
68137;BME280;54939;50.826;9.030;2023-04-09T00:11:09;99526.47;;;11.03;60.19
68137;BME280;54939;50.826;9.030;2023-04-09T00:11:39;99533.53;;;11.04;60.15
68137;BME280;54939;50.826;9.030;2023-04-09T00:12:09;99531.94;;;11.02;60.60
68137;BME280;54939;50.826;9.030;2023-04-09T00:12:40;99532.53;;;11.05;60.37
68137;BME280;54939;50.826;9.030;2023-04-09T00:13:10;99534.50;;;11.03;60.30
68137;BME280;54939;50.826;9.030;2023-04-09T00:13:40;99525.63;;;11.03;60.17
68137;BME280;54939;50.826;9.030;2023-04-09T00:14:11;99536.19;;;11.04;60.20
68137;BME280;54939;50.826;9.030;2023-04-09T00:14:41;99528.31;;;11.03;60.44
68137;BME280;54939;50.826;9.030;2023-04-09T00:15:11;99531.81;;;11.03;60.27
68137;BME280;54939;50.826;9.030;2023-04-09T00:15:41;99528.31;;;11.03;60.14
68137;BME280;54939;50.826;9.030;2023-04-09T00:16:11;99530.00;;;11.04;60.32
68137;BME280;54939;50.826;9.030;2023-04-09T00:16:41;99537.16;;;11.03;60.42
68137;BME280;54939;50.826;9.030;2023-04-09T00:17:12;99531.81;;;11.03;60.15
68137;BME280;54939;50.826;9.030;2023-04-09T00:17:42;99531.81;;;11.03;60.59
68137;BME280;54939;50.826;9.030;2023-04-09T00:18:13;99531.81;;;11.03;60.22
68137;BME280;54939;50.826;9.030;2023-04-09T00:18:43;99531.81;;;11.03;60.12
68137;BME280;54939;50.826;9.030;2023-04-09T00:19:13;99528.19;;;11.04;60.19
68137;BME280;54939;50.826;9.030;2023-04-09T00:19:43;99532.53;;;11.05;60.21
68137;BME280;54939;50.826;9.030;2023-04-09T00:20:14;99535.34;;;11.04;60.28
68137;BME280;54939;50.826;9.030;2023-04-09T00:20:44;99532.66;;;11.04;60.39
68137;BME280;54939;50.826;9.030;2023-04-09T00:21:14;99538.88;;;11.04;60.27
68137;BME280;54939;50.826;9.030;2023-04-09T00:21:45;99538.88;;;11.04;60.34
68137;BME280;54939;50.826;9.030;2023-04-09T00:22:15;99533.53;;;11.04;60.36
68137;BME280;54939;50.826;9.030;2023-04-09T00:22:46;99537.03;;;11.05;60.29
68137;BME280;54939;50.826;9.030;2023-04-09T00:23:17;99534.50;;;11.03;60.33
68137;BME280;54939;50.826;9.030;2023-04-09T00:23:47;99532.66;;;11.04;59.96
68137;BME280;54939;50.826;9.030;2023-04-09T00:24:17;99535.34;;;11.04;60.18
68137;BME280;54939;50.826;9.030;2023-04-09T00:24:47;99540.69;;;11.04;60.29
68137;BME280;54939;50.826;9.030;2023-04-09T00:25:18;99534.38;;;11.05;60.59
68137;BME280;54939;50.826;9.030;2023-04-09T00:25:48;99526.47;;;11.03;60.20
68137;BME280;54939;50.826;9.030;2023-04-09T00:26:19;99538.00;;;11.04;60.51
68137;BME280;54939;50.826;9.030;2023-04-09T00:26:50;99536.19;;;11.04;60.46
68137;BME280;54939;50.826;9.030;2023-04-09T00:27:20;99537.03;;;11.05;60.37
68137;BME280;54939;50.826;9.030;2023-04-09T00:27:50;99531.69;;;11.05;60.28
68137;BME280;54939;50.826;9.030;2023-04-09T00:28:21;99536.19;;;11.04;60.42
68137;BME280;54939;50.826;9.030;2023-04-09T00:28:51;99530.00;;;11.04;60.45
68137;BME280;54939;50.826;9.030;2023-04-09T00:29:21;99527.31;;;11.04;60.60
68137;BME280;54939;50.826;9.030;2023-04-09T00:29:54;99537.16;;;11.03;60.25
68137;BME280;54939;50.826;9.030;2023-04-09T00:30:27;99530.00;;;11.04;60.17
68137;BME280;54939;50.826;9.030;2023-04-09T00:30:57;99529.03;;;11.05;60.16
68137;BME280;54939;50.826;9.030;2023-04-09T00:31:27;99536.31;;;11.03;60.48
68137;BME280;54939;50.826;9.030;2023-04-09T00:31:57;99534.50;;;11.03;60.41
68137;BME280;54939;50.826;9.030;2023-04-09T00:32:28;99534.50;;;11.03;60.42
68137;BME280;54939;50.826;9.030;2023-04-09T00:32:58;99527.31;;;11.04;60.19
68137;BME280;54939;50.826;9.030;2023-04-09T00:33:29;99531.81;;;11.03;60.13
68137;BME280;54939;50.826;9.030;2023-04-09T00:33:59;99533.66;;;11.03;60.14
68137;BME280;54939;50.826;9.030;2023-04-09T00:34:30;99528.31;;;11.03;60.29
68137;BME280;54939;50.826;9.030;2023-04-09T00:35:00;99522.97;;;11.03;60.36
68137;BME280;54939;50.826;9.030;2023-04-09T00:35:30;99535.34;;;11.04;60.32
68137;BME280;54939;50.826;9.030;2023-04-09T00:36:00;99522.13;;;11.02;60.08
68137;BME280;54939;50.826;9.030;2023-04-09T00:36:31;99530.00;;;11.04;60.26
68137;BME280;54939;50.826;9.030;2023-04-09T00:37:02;99527.31;;;11.04;60.49
68137;BME280;54939;50.826;9.030;2023-04-09T00:37:32;99529.16;;;11.03;60.08
68137;BME280;54939;50.826;9.030;2023-04-09T00:38:02;99525.63;;;11.03;60.04
68137;BME280;54939;50.826;9.030;2023-04-09T00:38:32;99528.19;;;11.04;60.33
68137;BME280;54939;50.826;9.030;2023-04-09T00:39:02;99537.03;;;11.05;60.38
68137;BME280;54939;50.826;9.030;2023-04-09T00:39:33;99530.00;;;11.04;60.18
68137;BME280;54939;50.826;9.030;2023-04-09T00:40:03;99525.50;;;11.04;60.38
68137;BME280;54939;50.826;9.030;2023-04-09T00:40:33;99525.50;;;11.04;60.34
68137;BME280;54939;50.826;9.030;2023-04-09T00:41:04;99531.69;;;11.05;60.45
68137;BME280;54939;50.826;9.030;2023-04-09T00:41:34;99521.97;;;11.04;60.53
68137;BME280;54939;50.826;9.030;2023-04-09T00:42:04;99531.69;;;11.05;60.19
68137;BME280;54939;50.826;9.030;2023-04-09T00:42:35;99527.31;;;11.04;60.43
68137;BME280;54939;50.826;9.030;2023-04-09T00:43:06;99529.16;;;11.03;60.41
68137;BME280;54939;50.826;9.030;2023-04-09T00:43:36;99526.47;;;11.03;60.10
68137;BME280;54939;50.826;9.030;2023-04-09T00:44:06;99525.50;;;11.04;60.04
68137;BME280;54939;50.826;9.030;2023-04-09T00:44:36;99527.31;;;11.04;60.19
68137;BME280;54939;50.826;9.030;2023-04-09T00:45:07;99526.47;;;11.03;60.31
68137;BME280;54939;50.826;9.030;2023-04-09T00:45:37;99524.66;;;11.04;60.31
68137;BME280;54939;50.826;9.030;2023-04-09T00:46:07;99530.84;;;11.04;60.12
68137;BME280;54939;50.826;9.030;2023-04-09T00:46:38;99534.50;;;11.03;60.11
68137;BME280;54939;50.826;9.030;2023-04-09T00:47:08;99521.13;;;11.03;60.27
68137;BME280;54939;50.826;9.030;2023-04-09T00:47:38;99521.25;;;11.02;60.38
68137;BME280;54939;50.826;9.030;2023-04-09T00:48:09;99527.31;;;11.04;60.17
68137;BME280;54939;50.826;9.030;2023-04-09T00:48:39;99526.47;;;11.03;60.11
68137;BME280;54939;50.826;9.030;2023-04-09T00:49:10;99530.00;;;11.04;60.09
68137;BME280;54939;50.826;9.030;2023-04-09T00:49:40;99531.69;;;11.05;60.04
68137;BME280;54939;50.826;9.030;2023-04-09T00:50:10;99525.63;;;11.03;60.13
68137;BME280;54939;50.826;9.030;2023-04-09T00:50:40;99527.31;;;11.04;60.12
68137;BME280;54939;50.826;9.030;2023-04-09T00:51:11;99530.84;;;11.04;60.28
68137;BME280;54939;50.826;9.030;2023-04-09T00:51:41;99522.84;;;11.04;60.35
68137;BME280;54939;50.826;9.030;2023-04-09T00:52:12;99522.84;;;11.04;60.25
68137;BME280;54939;50.826;9.030;2023-04-09T00:52:43;99524.53;;;11.05;60.21
68137;BME280;54939;50.826;9.030;2023-04-09T00:53:13;99521.00;;;11.05;60.15
68137;BME280;54939;50.826;9.030;2023-04-09T00:53:43;99518.47;;;11.03;60.35
68137;BME280;54939;50.826;9.030;2023-04-09T00:54:13;99525.50;;;11.04;60.03
68137;BME280;54939;50.826;9.030;2023-04-09T00:54:45;99524.66;;;11.04;60.11
68137;BME280;54939;50.826;9.030;2023-04-09T00:55:15;99518.34;;;11.05;60.53
68137;BME280;54939;50.826;9.030;2023-04-09T00:55:45;99524.66;;;11.04;60.35
68137;BME280;54939;50.826;9.030;2023-04-09T00:56:15;99529.16;;;11.03;60.46
68137;BME280;54939;50.826;9.030;2023-04-09T00:56:46;99525.50;;;11.04;60.49
68137;BME280;54939;50.826;9.030;2023-04-09T00:57:17;99524.66;;;11.04;60.17
68137;BME280;54939;50.826;9.030;2023-04-09T00:57:47;99523.81;;;11.03;60.20
68137;BME280;54939;50.826;9.030;2023-04-09T00:58:17;99519.31;;;11.04;60.22
68137;BME280;54939;50.826;9.030;2023-04-09T00:58:48;99523.81;;;11.03;60.19
68137;BME280;54939;50.826;9.030;2023-04-09T00:59:18;99524.78;;;11.02;60.29
68137;BME280;54939;50.826;9.030;2023-04-09T00:59:48;99529.16;;;11.03;60.37
68137;BME280;54939;50.826;9.030;2023-04-09T01:00:19;99526.47;;;11.03;60.30
68137;BME280;54939;50.826;9.030;2023-04-09T01:00:49;99521.25;;;11.02;60.10
68137;BME280;54939;50.826;9.030;2023-04-09T01:01:19;99523.81;;;11.03;60.33
68137;BME280;54939;50.826;9.030;2023-04-09T01:01:50;99522.97;;;11.03;60.16
68137;BME280;54939;50.826;9.030;2023-04-09T01:02:20;99520.28;;;11.03;60.29
68137;BME280;54939;50.826;9.030;2023-04-09T01:02:50;99521.13;;;11.03;60.50
68137;BME280;54939;50.826;9.030;2023-04-09T01:03:21;99512.28;;;11.03;60.32
68137;BME280;54939;50.826;9.030;2023-04-09T01:03:52;99525.63;;;11.03;60.21
68137;BME280;54939;50.826;9.030;2023-04-09T01:04:22;99521.13;;;11.03;60.27
68137;BME280;54939;50.826;9.030;2023-04-09T01:04:53;99518.47;;;11.03;60.34
68137;BME280;54939;50.826;9.030;2023-04-09T01:05:25;99524.66;;;11.04;60.39
68137;BME280;54939;50.826;9.030;2023-04-09T01:06:10;99515.78;;;11.03;60.30
68137;BME280;54939;50.826;9.030;2023-04-09T01:06:46;99523.81;;;11.03;60.38
68137;BME280;54939;50.826;9.030;2023-04-09T01:07:25;99521.13;;;11.03;60.34
68137;BME280;54939;50.826;9.030;2023-04-09T01:08:02;99513.97;;;11.04;60.16
68137;BME280;54939;50.826;9.030;2023-04-09T01:09:45;99518.59;;;11.02;60.22
68137;BME280;54939;50.826;9.030;2023-04-09T01:11:19;99517.63;;;11.03;60.40
68137;BME280;54939;50.826;9.030;2023-04-09T01:12:01;99526.63;;;11.02;60.31
68137;BME280;54939;50.826;9.030;2023-04-09T01:12:47;99512.28;;;11.03;60.28
68137;BME280;54939;50.826;9.030;2023-04-09T01:13:27;99514.09;;;11.02;60.47
68137;BME280;54939;50.826;9.030;2023-04-09T01:14:31;99510.44;;;11.03;60.46
68137;BME280;54939;50.826;9.030;2023-04-09T01:15:06;99516.63;;;11.04;60.15
68137;BME280;54939;50.826;9.030;2023-04-09T01:15:38;99513.97;;;11.04;60.44
68137;BME280;54939;50.826;9.030;2023-04-09T01:16:11;99519.31;;;11.04;60.12
68137;BME280;54939;50.826;9.030;2023-04-09T01:16:43;99513.97;;;11.04;60.37
68137;BME280;54939;50.826;9.030;2023-04-09T01:17:17;99513.13;;;11.03;60.31
68137;BME280;54939;50.826;9.030;2023-04-09T01:18:34;99510.44;;;11.03;60.38
68137;BME280;54939;50.826;9.030;2023-04-09T01:19:09;99514.81;;;11.04;60.67
68137;BME280;54939;50.826;9.030;2023-04-09T01:19:41;99506.94;;;11.03;60.49
68137;BME280;54939;50.826;9.030;2023-04-09T01:21:08;99509.59;;;11.03;60.36
68137;BME280;54939;50.826;9.030;2023-04-09T01:21:36;99506.09;;;11.02;60.61
68137;BME280;54939;50.826;9.030;2023-04-09T01:22:09;99509.59;;;11.03;60.32
68137;BME280;54939;50.826;9.030;2023-04-09T01:23:45;99514.09;;;11.02;60.52
68137;BME280;54939;50.826;9.030;2023-04-09T01:24:21;99500.75;;;11.02;60.72
68137;BME280;54939;50.826;9.030;2023-04-09T01:25:01;99505.25;;;11.02;60.59
68137;BME280;54939;50.826;9.030;2023-04-09T01:27:22;99500.75;;;11.02;60.38
68137;BME280;54939;50.826;9.030;2023-04-09T01:28:43;99512.28;;;11.03;60.36
68137;BME280;54939;50.826;9.030;2023-04-09T01:29:14;99506.09;;;11.02;60.20
68137;BME280;54939;50.826;9.030;2023-04-09T01:29:46;99506.94;;;11.03;60.17
68137;BME280;54939;50.826;9.030;2023-04-09T01:30:16;99506.94;;;11.03;60.59
68137;BME280;54939;50.826;9.030;2023-04-09T01:30:48;99503.41;;;11.02;60.36
68137;BME280;54939;50.826;9.030;2023-04-09T01:31:19;99508.75;;;11.02;60.56
68137;BME280;54939;50.826;9.030;2023-04-09T01:31:50;99502.56;;;11.02;60.36
68137;BME280;54939;50.826;9.030;2023-04-09T01:32:21;99508.75;;;11.02;60.28
68137;BME280;54939;50.826;9.030;2023-04-09T01:32:51;99505.25;;;11.02;60.51
68137;BME280;54939;50.826;9.030;2023-04-09T01:33:22;99502.56;;;11.02;60.45
68137;BME280;54939;50.826;9.030;2023-04-09T01:33:53;99510.56;;;11.02;60.26
68137;BME280;54939;50.826;9.030;2023-04-09T01:34:24;99502.56;;;11.02;60.58
68137;BME280;54939;50.826;9.030;2023-04-09T01:34:56;99509.72;;;11.01;60.28
68137;BME280;54939;50.826;9.030;2023-04-09T01:35:26;99504.38;;;11.01;60.55
68137;BME280;54939;50.826;9.030;2023-04-09T01:35:57;99507.91;;;11.02;60.49
68137;BME280;54939;50.826;9.030;2023-04-09T01:36:29;99507.91;;;11.02;60.22
68137;BME280;54939;50.826;9.030;2023-04-09T01:37:01;99512.28;;;11.03;60.35
68137;BME280;54939;50.826;9.030;2023-04-09T01:37:32;99506.09;;;11.02;60.52
68137;BME280;54939;50.826;9.030;2023-04-09T01:38:02;99509.59;;;11.03;60.30
68137;BME280;54939;50.826;9.030;2023-04-09T01:38:38;99504.25;;;11.03;60.35
68137;BME280;54939;50.826;9.030;2023-04-09T01:39:09;99508.75;;;11.02;60.24
68137;BME280;54939;50.826;9.030;2023-04-09T01:39:39;99499.88;;;11.02;60.33
68137;BME280;54939;50.826;9.030;2023-04-09T01:40:10;99511.44;;;11.02;60.18
68137;BME280;54939;50.826;9.030;2023-04-09T01:40:40;99508.75;;;11.02;60.42
68137;BME280;54939;50.826;9.030;2023-04-09T01:41:11;99512.41;;;11.01;60.14
68137;BME280;54939;50.826;9.030;2023-04-09T01:41:43;99507.06;;;11.01;60.29
68137;BME280;54939;50.826;9.030;2023-04-09T01:42:14;99506.22;;;11.01;60.40
68137;BME280;54939;50.826;9.030;2023-04-09T01:42:44;99510.56;;;11.02;60.32
68137;BME280;54939;50.826;9.030;2023-04-09T01:43:16;99508.75;;;11.02;60.33
68137;BME280;54939;50.826;9.030;2023-04-09T01:43:47;99511.44;;;11.02;60.36
68137;BME280;54939;50.826;9.030;2023-04-09T01:44:18;99505.25;;;11.02;60.31
68137;BME280;54939;50.826;9.030;2023-04-09T01:44:49;99512.28;;;11.03;60.32
68137;BME280;54939;50.826;9.030;2023-04-09T01:45:20;99513.25;;;11.02;60.34
68137;BME280;54939;50.826;9.030;2023-04-09T01:45:51;99513.25;;;11.02;60.25
68137;BME280;54939;50.826;9.030;2023-04-09T01:46:21;99511.44;;;11.02;60.31
68137;BME280;54939;50.826;9.030;2023-04-09T01:46:52;99512.28;;;11.03;60.29
68137;BME280;54939;50.826;9.030;2023-04-09T01:47:23;99510.56;;;11.02;60.24
68137;BME280;54939;50.826;9.030;2023-04-09T01:47:53;99513.25;;;11.02;60.18
68137;BME280;54939;50.826;9.030;2023-04-09T01:48:24;99514.94;;;11.03;60.14
68137;BME280;54939;50.826;9.030;2023-04-09T01:48:55;99507.91;;;11.02;60.34
68137;BME280;54939;50.826;9.030;2023-04-09T01:49:26;99508.75;;;11.02;60.49
68137;BME280;54939;50.826;9.030;2023-04-09T01:49:56;99512.41;;;11.01;60.24
68137;BME280;54939;50.826;9.030;2023-04-09T01:50:27;99515.06;;;11.01;60.36
68137;BME280;54939;50.826;9.030;2023-04-09T01:50:58;99515.06;;;11.01;60.22
68137;BME280;54939;50.826;9.030;2023-04-09T01:51:28;99511.56;;;11.01;60.46
68137;BME280;54939;50.826;9.030;2023-04-09T01:52:00;99519.44;;;11.02;60.23
68137;BME280;54939;50.826;9.030;2023-04-09T01:52:30;99514.09;;;11.02;60.55
68137;BME280;54939;50.826;9.030;2023-04-09T01:53:01;99515.94;;;11.02;60.33
68137;BME280;54939;50.826;9.030;2023-04-09T01:53:31;99513.25;;;11.02;60.30
68137;BME280;54939;50.826;9.030;2023-04-09T01:54:02;99515.94;;;11.02;60.22
68137;BME280;54939;50.826;9.030;2023-04-09T01:54:32;99515.94;;;11.02;60.26
68137;BME280;54939;50.826;9.030;2023-04-09T01:55:03;99510.56;;;11.02;60.17
68137;BME280;54939;50.826;9.030;2023-04-09T01:55:33;99509.72;;;11.01;60.42
68137;BME280;54939;50.826;9.030;2023-04-09T01:56:04;99515.94;;;11.02;60.27
68137;BME280;54939;50.826;9.030;2023-04-09T01:56:44;99513.25;;;11.02;60.25
68137;BME280;54939;50.826;9.030;2023-04-09T01:57:15;99517.75;;;11.01;60.04
68137;BME280;54939;50.826;9.030;2023-04-09T01:57:45;99514.22;;;11.01;60.11
68137;BME280;54939;50.826;9.030;2023-04-09T01:58:15;99510.56;;;11.02;60.20
68137;BME280;54939;50.826;9.030;2023-04-09T01:58:45;99515.06;;;11.01;60.20
68137;BME280;54939;50.826;9.030;2023-04-09T01:59:15;99510.56;;;11.02;60.22
68137;BME280;54939;50.826;9.030;2023-04-09T01:59:46;99513.25;;;11.02;60.26
68137;BME280;54939;50.826;9.030;2023-04-09T02:00:16;99509.72;;;11.01;60.37
68137;BME280;54939;50.826;9.030;2023-04-09T02:00:46;99514.22;;;11.01;60.19
68137;BME280;54939;50.826;9.030;2023-04-09T02:02:00;99515.94;;;11.02;60.43
68137;BME280;54939;50.826;9.030;2023-04-09T02:02:35;99519.56;;;11.01;60.13
68137;BME280;54939;50.826;9.030;2023-04-09T02:03:15;99512.41;;;11.01;59.99
68137;BME280;54939;50.826;9.030;2023-04-09T02:03:46;99513.38;;;11.00;60.04
68137;BME280;54939;50.826;9.030;2023-04-09T02:04:20;99515.06;;;11.01;60.23
68137;BME280;54939;50.826;9.030;2023-04-09T02:04:51;99519.56;;;11.01;60.38
68137;BME280;54939;50.826;9.030;2023-04-09T02:05:24;99518.72;;;11.00;60.28
68137;BME280;54939;50.826;9.030;2023-04-09T02:07:04;99514.22;;;11.01;60.37
68137;BME280;54939;50.826;9.030;2023-04-09T02:07:38;99520.41;;;11.01;60.32
68137;BME280;54939;50.826;9.030;2023-04-09T02:08:11;99517.88;;;11.00;60.32
68137;BME280;54939;50.826;9.030;2023-04-09T02:08:43;99521.41;;;11.00;60.15
68137;BME280;54939;50.826;9.030;2023-04-09T02:09:15;99516.06;;;11.00;60.15
68137;BME280;54939;50.826;9.030;2023-04-09T02:09:47;99519.56;;;11.01;60.27
68137;BME280;54939;50.826;9.030;2023-04-09T02:10:18;99520.53;;;11.00;60.28
68137;BME280;54939;50.826;9.030;2023-04-09T02:10:53;99516.91;;;11.01;60.28
68137;BME280;54939;50.826;9.030;2023-04-09T02:11:24;99515.22;;;11.00;60.21
68137;BME280;54939;50.826;9.030;2023-04-09T02:11:57;99522.38;;;10.99;60.15
68137;BME280;54939;50.826;9.030;2023-04-09T02:12:27;99518.72;;;11.00;60.34
68137;BME280;54939;50.826;9.030;2023-04-09T02:13:00;99514.22;;;11.01;60.28
68137;BME280;54939;50.826;9.030;2023-04-09T02:13:33;99518.72;;;11.00;60.36
68137;BME280;54939;50.826;9.030;2023-04-09T02:14:04;99517.88;;;11.00;60.19
68137;BME280;54939;50.826;9.030;2023-04-09T02:14:37;99518.72;;;11.00;60.17
68137;BME280;54939;50.826;9.030;2023-04-09T02:15:08;99522.38;;;10.99;60.03
68137;BME280;54939;50.826;9.030;2023-04-09T02:15:39;99515.22;;;11.00;60.54
68137;BME280;54939;50.826;9.030;2023-04-09T02:16:10;99512.53;;;11.00;60.29
68137;BME280;54939;50.826;9.030;2023-04-09T02:16:42;99514.34;;;10.99;60.21
68137;BME280;54939;50.826;9.030;2023-04-09T02:17:12;99514.34;;;10.99;60.20
68137;BME280;54939;50.826;9.030;2023-04-09T02:17:42;99509.00;;;10.99;60.22
68137;BME280;54939;50.826;9.030;2023-04-09T02:18:25;99522.38;;;10.99;59.96
68137;BME280;54939;50.826;9.030;2023-04-09T02:18:56;99517.03;;;10.99;60.14
68137;BME280;54939;50.826;9.030;2023-04-09T02:19:39;99522.38;;;10.99;60.27
68137;BME280;54939;50.826;9.030;2023-04-09T02:20:09;99524.22;;;10.99;60.13
68137;BME280;54939;50.826;9.030;2023-04-09T02:20:41;99517.88;;;11.00;60.24
68137;BME280;54939;50.826;9.030;2023-04-09T02:21:11;99517.88;;;11.00;60.06
68137;BME280;54939;50.826;9.030;2023-04-09T02:21:42;99515.22;;;11.00;60.27
68137;BME280;54939;50.826;9.030;2023-04-09T02:22:14;99514.34;;;10.99;59.97
68137;BME280;54939;50.826;9.030;2023-04-09T02:22:45;99517.03;;;10.99;60.26
68137;BME280;54939;50.826;9.030;2023-04-09T02:23:15;99513.53;;;10.99;59.96
68137;BME280;54939;50.826;9.030;2023-04-09T02:23:46;99516.22;;;10.99;60.24
68137;BME280;54939;50.826;9.030;2023-04-09T02:24:16;99508.19;;;10.99;60.19
68137;BME280;54939;50.826;9.030;2023-04-09T02:24:46;99510.88;;;10.99;60.30
68137;BME280;54939;50.826;9.030;2023-04-09T02:25:17;99514.34;;;10.99;60.35
68137;BME280;54939;50.826;9.030;2023-04-09T02:25:47;99518.88;;;10.99;60.05
68137;BME280;54939;50.826;9.030;2023-04-09T02:26:17;99505.53;;;10.99;60.10
68137;BME280;54939;50.826;9.030;2023-04-09T02:26:47;99509.00;;;10.99;60.20
68137;BME280;54939;50.826;9.030;2023-04-09T02:27:17;99515.38;;;10.98;60.33
68137;BME280;54939;50.826;9.030;2023-04-09T02:27:48;99512.53;;;11.00;60.05
68137;BME280;54939;50.826;9.030;2023-04-09T02:28:18;99510.88;;;10.99;60.32
68137;BME280;54939;50.826;9.030;2023-04-09T02:28:48;99513.53;;;10.99;59.94
68137;BME280;54939;50.826;9.030;2023-04-09T02:29:18;99520.72;;;10.98;60.04
68137;BME280;54939;50.826;9.030;2023-04-09T02:29:49;99510.88;;;10.99;60.11
68137;BME280;54939;50.826;9.030;2023-04-09T02:30:19;99513.53;;;10.99;60.34
68137;BME280;54939;50.826;9.030;2023-04-09T02:30:49;99514.53;;;10.98;60.09
68137;BME280;54939;50.826;9.030;2023-04-09T02:31:20;99517.19;;;10.98;60.01
68137;BME280;54939;50.826;9.030;2023-04-09T02:31:50;99520.72;;;10.98;60.17
68137;BME280;54939;50.826;9.030;2023-04-09T02:32:22;99519.88;;;10.98;60.31
68137;BME280;54939;50.826;9.030;2023-04-09T02:32:52;99514.53;;;10.98;60.09
68137;BME280;54939;50.826;9.030;2023-04-09T02:33:22;99514.53;;;10.98;60.09
68137;BME280;54939;50.826;9.030;2023-04-09T02:33:52;99507.34;;;10.98;59.91
68137;BME280;54939;50.826;9.030;2023-04-09T02:34:23;99510.03;;;10.98;59.77
68137;BME280;54939;50.826;9.030;2023-04-09T02:34:53;99509.19;;;10.98;60.10
68137;BME280;54939;50.826;9.030;2023-04-09T02:35:23;99508.19;;;10.99;60.22
68137;BME280;54939;50.826;9.030;2023-04-09T02:35:53;99505.53;;;10.99;60.10
68137;BME280;54939;50.826;9.030;2023-04-09T02:36:23;99513.53;;;10.99;60.08
68137;BME280;54939;50.826;9.030;2023-04-09T02:36:54;99510.88;;;10.99;60.24
68137;BME280;54939;50.826;9.030;2023-04-09T02:37:25;99510.03;;;10.98;60.20
68137;BME280;54939;50.826;9.030;2023-04-09T02:37:55;99513.53;;;10.99;60.13
68137;BME280;54939;50.826;9.030;2023-04-09T02:38:25;99505.53;;;10.99;60.24
68137;BME280;54939;50.826;9.030;2023-04-09T02:38:55;99511.84;;;10.98;60.09
68137;BME280;54939;50.826;9.030;2023-04-09T02:39:25;99510.03;;;10.98;60.06
68137;BME280;54939;50.826;9.030;2023-04-09T02:39:56;99511.84;;;10.98;60.18
68137;BME280;54939;50.826;9.030;2023-04-09T02:40:26;99506.34;;;10.99;60.05
68137;BME280;54939;50.826;9.030;2023-04-09T02:40:56;99505.53;;;10.99;60.08
68137;BME280;54939;50.826;9.030;2023-04-09T02:41:26;99506.50;;;10.98;60.26
68137;BME280;54939;50.826;9.030;2023-04-09T02:41:57;99512.69;;;10.98;60.09
68137;BME280;54939;50.826;9.030;2023-04-09T02:42:27;99510.03;;;10.98;60.23
68137;BME280;54939;50.826;9.030;2023-04-09T02:42:57;99509.19;;;10.98;60.14
68137;BME280;54939;50.826;9.030;2023-04-09T02:43:27;99510.03;;;10.98;60.28
68137;BME280;54939;50.826;9.030;2023-04-09T02:43:57;99510.03;;;10.98;60.10
68137;BME280;54939;50.826;9.030;2023-04-09T02:44:28;99511.84;;;10.98;60.06
68137;BME280;54939;50.826;9.030;2023-04-09T02:44:58;99514.53;;;10.98;60.12
68137;BME280;54939;50.826;9.030;2023-04-09T02:45:28;99513.53;;;10.99;60.18
68137;BME280;54939;50.826;9.030;2023-04-09T02:45:58;99507.34;;;10.98;60.13
68137;BME280;54939;50.826;9.030;2023-04-09T02:46:28;99508.31;;;10.97;60.10
68137;BME280;54939;50.826;9.030;2023-04-09T02:46:58;99511.69;;;10.99;60.19
68137;BME280;54939;50.826;9.030;2023-04-09T02:47:29;99513.53;;;10.99;60.21
68137;BME280;54939;50.826;9.030;2023-04-09T02:47:59;99513.53;;;10.99;60.18
68137;BME280;54939;50.826;9.030;2023-04-09T02:48:29;99510.88;;;10.99;60.18
68137;BME280;54939;50.826;9.030;2023-04-09T02:48:59;99509.00;;;10.99;59.96
68137;BME280;54939;50.826;9.030;2023-04-09T02:49:30;99515.22;;;11.00;60.33
68137;BME280;54939;50.826;9.030;2023-04-09T02:50:00;99512.53;;;11.00;60.23
68137;BME280;54939;50.826;9.030;2023-04-09T02:50:30;99518.88;;;10.99;60.04
68137;BME280;54939;50.826;9.030;2023-04-09T02:51:00;99510.88;;;10.99;60.18
68137;BME280;54939;50.826;9.030;2023-04-09T02:51:30;99510.88;;;10.99;60.01
68137;BME280;54939;50.826;9.030;2023-04-09T02:52:00;99504.69;;;10.98;60.08
68137;BME280;54939;50.826;9.030;2023-04-09T02:52:31;99517.03;;;10.99;60.31
68137;BME280;54939;50.826;9.030;2023-04-09T02:53:01;99510.88;;;10.99;60.18
68137;BME280;54939;50.826;9.030;2023-04-09T02:53:31;99518.03;;;10.98;60.09
68137;BME280;54939;50.826;9.030;2023-04-09T02:54:01;99517.19;;;10.98;60.15
68137;BME280;54939;50.826;9.030;2023-04-09T02:54:32;99515.38;;;10.98;60.32
68137;BME280;54939;50.826;9.030;2023-04-09T02:55:02;99514.53;;;10.98;60.33